createdAt,value
2017-01-25T00:00:08.400Z,23.95
2017-01-25T00:00:36.692Z,23.94
2017-01-25T00:01:05.232Z,23.94
2017-01-25T00:01:33.614Z,23.96
2017-01-25T00:02:01.859Z,24.01
2017-01-25T00:02:30.137Z,24
2017-01-25T00:02:58.328Z,23.95
2017-01-25T00:03:26.504Z,23.94
2017-01-25T00:03:54.739Z,24.09
2017-01-25T00:04:22.947Z,24.22
2017-01-25T00:04:51.249Z,24.22
2017-01-25T00:05:19.494Z,24.21
2017-01-25T00:05:47.681Z,24.25
2017-01-25T00:06:15.835Z,24.26
2017-01-25T00:06:44.027Z,24.31
2017-01-25T00:07:12.195Z,24.16
2017-01-25T00:07:40.389Z,24.26
2017-01-25T00:08:08.532Z,24.22
2017-01-25T00:08:36.794Z,24.26
2017-01-25T00:09:04.965Z,24.11
2017-01-25T00:09:33.153Z,24.09
2017-01-25T00:10:01.327Z,24.01
2017-01-25T00:10:29.486Z,24.06
2017-01-25T00:10:57.639Z,23.94
2017-01-25T00:11:25.912Z,24.09
2017-01-25T00:11:54.114Z,24.09
2017-01-25T00:12:22.287Z,24.18
2017-01-25T00:12:50.452Z,24.24
2017-01-25T00:13:19.107Z,24.21
2017-01-25T00:13:47.437Z,24.32
2017-01-25T00:14:15.606Z,24.31
2017-01-25T00:14:43.778Z,24.29
2017-01-25T00:15:12.034Z,24.21
2017-01-25T00:15:40.194Z,24.16
2017-01-25T00:16:08.476Z,24.14
2017-01-25T00:16:36.645Z,24.03
2017-01-25T00:17:04.842Z,24.06
2017-01-25T00:17:33.197Z,24.04
2017-01-25T00:18:01.354Z,23.94
2017-01-25T00:18:29.518Z,23.89
2017-01-25T00:18:57.693Z,23.92
2017-01-25T00:19:25.953Z,23.89
2017-01-25T00:19:54.120Z,23.91
2017-01-25T00:20:22.259Z,24
2017-01-25T00:20:50.392Z,24.03
2017-01-25T00:21:18.580Z,24.32
2017-01-25T00:21:46.727Z,24.44
2017-01-25T00:22:15.091Z,24.41
2017-01-25T00:22:43.257Z,24.44
2017-01-25T00:23:11.545Z,24.43
2017-01-25T00:23:39.758Z,24.31
2017-01-25T00:24:07.919Z,24.24
2017-01-25T00:24:36.185Z,24.22
2017-01-25T00:25:04.347Z,24.16
2017-01-25T00:25:32.521Z,24.19
2017-01-25T00:26:00.679Z,24.14
2017-01-25T00:26:28.940Z,24.04
2017-01-25T00:26:57.197Z,23.96
2017-01-25T00:27:25.396Z,23.96
2017-01-25T00:27:53.683Z,23.91
2017-01-25T00:28:21.863Z,23.84
2017-01-25T00:28:50.012Z,23.79
2017-01-25T00:29:18.196Z,23.85
2017-01-25T00:29:46.376Z,23.88
2017-01-25T00:30:14.607Z,23.85
2017-01-25T00:30:42.866Z,24.06
2017-01-25T00:31:11.031Z,24.14
2017-01-25T00:31:39.172Z,24.06
2017-01-25T00:32:07.426Z,24.09
2017-01-25T00:32:35.587Z,24.03
2017-01-25T00:33:03.818Z,24
2017-01-25T00:33:31.968Z,23.92
2017-01-25T00:34:00.156Z,23.92
2017-01-25T00:34:28.296Z,23.95
2017-01-25T00:34:56.455Z,23.79
2017-01-25T00:35:24.576Z,23.86
2017-01-25T00:35:52.794Z,23.81
2017-01-25T00:36:20.930Z,23.84
2017-01-25T00:36:49.096Z,23.74
2017-01-25T00:37:17.343Z,23.81
2017-01-25T00:37:45.526Z,23.79
2017-01-25T00:38:13.816Z,23.79
2017-01-25T00:38:41.975Z,23.92
2017-01-25T00:39:10.174Z,23.95
2017-01-25T00:39:38.335Z,24.07
2017-01-25T00:40:06.517Z,24.03
2017-01-25T00:40:34.674Z,24
2017-01-25T00:41:02.844Z,23.95
2017-01-25T00:41:31.108Z,23.91
2017-01-25T00:41:59.275Z,23.86
2017-01-25T00:42:27.434Z,23.79
2017-01-25T00:42:55.644Z,23.82
2017-01-25T00:43:23.891Z,23.77
2017-01-25T00:43:52.058Z,23.69
2017-01-25T00:44:20.219Z,23.64
2017-01-25T00:44:48.474Z,23.49
2017-01-25T00:45:16.744Z,23.56
2017-01-25T00:45:45.027Z,23.49
2017-01-25T00:46:13.169Z,23.44
2017-01-25T00:46:41.434Z,23.45
2017-01-25T00:47:09.595Z,23.54
2017-01-25T00:47:37.812Z,23.55
2017-01-25T00:48:06.026Z,23.62
2017-01-25T00:48:34.240Z,23.54
2017-01-25T00:49:02.379Z,23.56
2017-01-25T00:49:30.742Z,23.45
2017-01-25T00:49:58.896Z,23.47
2017-01-25T00:50:27.053Z,23.48
2017-01-25T00:50:55.231Z,23.42
2017-01-25T00:51:23.431Z,23.39
2017-01-25T00:51:51.586Z,23.42
2017-01-25T00:52:19.753Z,23.33
2017-01-25T00:52:47.882Z,23.28
2017-01-25T00:53:16.038Z,23.23
2017-01-25T00:53:44.267Z,23.26
2017-01-25T00:54:12.458Z,23.23
2017-01-25T00:54:40.600Z,23.17
2017-01-25T00:55:08.771Z,23.25
2017-01-25T00:55:36.980Z,23.17
2017-01-25T00:56:05.120Z,23.2
2017-01-25T00:56:33.259Z,23.18
2017-01-25T00:57:01.413Z,23.36
2017-01-25T00:57:29.556Z,23.39
2017-01-25T00:57:57.772Z,23.47
2017-01-25T00:58:25.958Z,23.45
2017-01-25T00:58:54.214Z,23.45
2017-01-25T00:59:22.392Z,23.45
2017-01-25T00:59:50.567Z,23.36
2017-01-25T01:00:18.755Z,23.33
2017-01-25T01:00:46.948Z,23.32
2017-01-25T01:01:15.145Z,23.23
2017-01-25T01:01:43.328Z,23.23
2017-01-25T01:02:11.511Z,23.25
2017-01-25T01:02:39.666Z,23.23
2017-01-25T01:03:07.801Z,23.25
2017-01-25T01:03:35.972Z,23.23
2017-01-25T01:04:04.124Z,23.25
2017-01-25T01:04:32.265Z,23.23
2017-01-25T01:05:00.496Z,23.26
2017-01-25T01:05:28.656Z,23.32
2017-01-25T01:05:56.819Z,23.44
2017-01-25T01:06:24.994Z,23.49
2017-01-25T01:06:53.248Z,23.62
2017-01-25T01:07:21.426Z,23.54
2017-01-25T01:07:49.587Z,23.52
2017-01-25T01:08:17.769Z,23.51
2017-01-25T01:08:45.977Z,23.47
2017-01-25T01:09:14.118Z,23.42
2017-01-25T01:09:42.305Z,23.4
2017-01-25T01:10:10.459Z,23.45
2017-01-25T01:10:38.602Z,23.47
2017-01-25T01:11:06.773Z,23.42
2017-01-25T01:11:34.923Z,23.39
2017-01-25T01:12:03.066Z,23.4
2017-01-25T01:12:31.356Z,23.36
2017-01-25T01:12:59.550Z,23.28
2017-01-25T01:13:27.722Z,23.25
2017-01-25T01:13:55.861Z,23.28
2017-01-25T01:14:24.037Z,23.36
2017-01-25T01:14:52.317Z,23.39
2017-01-25T01:15:20.493Z,23.4
2017-01-25T01:15:48.657Z,23.47
2017-01-25T01:16:16.817Z,23.4
2017-01-25T01:16:45.104Z,23.34
2017-01-25T01:17:13.267Z,23.4
2017-01-25T01:17:41.430Z,23.33
2017-01-25T01:18:09.566Z,23.2
2017-01-25T01:18:37.746Z,23.28
2017-01-25T01:19:06.067Z,23.13
2017-01-25T01:19:34.263Z,23.13
2017-01-25T01:20:02.439Z,23.01
2017-01-25T01:20:30.627Z,23.08
2017-01-25T01:20:58.904Z,22.96
2017-01-25T01:21:27.053Z,22.95
2017-01-25T01:21:55.392Z,22.91
2017-01-25T01:22:23.559Z,22.84
2017-01-25T01:22:51.742Z,22.93
2017-01-25T01:23:19.917Z,22.89
2017-01-25T01:23:48.067Z,23.11
2017-01-25T01:24:16.235Z,23.17
2017-01-25T01:24:44.390Z,23.21
2017-01-25T01:25:12.997Z,23.32
2017-01-25T01:25:41.166Z,23.44
2017-01-25T01:26:09.324Z,23.37
2017-01-25T01:26:37.577Z,23.36
2017-01-25T01:27:05.808Z,23.23
2017-01-25T01:27:33.968Z,23.25
2017-01-25T01:28:02.124Z,23.17
2017-01-25T01:28:30.279Z,23.1
2017-01-25T01:28:58.453Z,23.01
2017-01-25T01:29:26.618Z,23.06
2017-01-25T01:29:54.767Z,22.98
2017-01-25T01:30:22.951Z,22.89
2017-01-25T01:30:51.153Z,22.84
2017-01-25T01:31:19.298Z,22.84
2017-01-25T01:31:47.439Z,22.78
2017-01-25T01:32:15.647Z,22.8
2017-01-25T01:32:43.795Z,22.89
2017-01-25T01:33:12.046Z,22.88
2017-01-25T01:33:40.213Z,22.88
2017-01-25T01:34:08.379Z,22.98
2017-01-25T01:34:36.544Z,23.01
2017-01-25T01:35:04.685Z,23.18
2017-01-25T01:35:32.858Z,23.2
2017-01-25T01:36:01.024Z,23.21
2017-01-25T01:36:29.244Z,23.18
2017-01-25T01:36:57.414Z,23.17
2017-01-25T01:37:25.637Z,23.13
2017-01-25T01:37:53.796Z,23.1
2017-01-25T01:38:22.278Z,23.08
2017-01-25T01:38:51.055Z,22.99
2017-01-25T01:39:19.694Z,22.92
2017-01-25T01:39:48.285Z,22.98
2017-01-25T01:40:16.993Z,22.92
2017-01-25T01:40:45.948Z,22.83
2017-01-25T01:41:14.642Z,22.89
2017-01-25T01:41:43.403Z,22.8
2017-01-25T01:42:12.316Z,22.8
2017-01-25T01:42:41.057Z,22.83
2017-01-25T01:43:09.747Z,22.73
2017-01-25T01:43:38.513Z,22.73
2017-01-25T01:44:07.230Z,22.73
2017-01-25T01:44:35.849Z,22.77
2017-01-25T01:45:04.384Z,22.76
2017-01-25T01:45:32.724Z,22.8
2017-01-25T01:46:00.973Z,22.8
2017-01-25T01:46:29.167Z,22.65
2017-01-25T01:46:57.361Z,22.68
2017-01-25T01:47:25.539Z,22.65
2017-01-25T01:47:53.730Z,22.74
2017-01-25T01:48:21.960Z,22.67
2017-01-25T01:48:50.285Z,22.65
2017-01-25T01:49:18.436Z,22.7
2017-01-25T01:49:46.624Z,22.63
2017-01-25T01:50:14.815Z,22.67
2017-01-25T01:50:42.970Z,22.62
2017-01-25T01:51:11.125Z,22.74
2017-01-25T01:51:39.278Z,22.7
2017-01-25T01:52:07.475Z,22.67
2017-01-25T01:52:35.620Z,22.67
2017-01-25T01:53:03.825Z,22.61
2017-01-25T01:53:31.967Z,22.63
2017-01-25T01:54:00.253Z,22.65
2017-01-25T01:54:28.420Z,22.62
2017-01-25T01:54:56.661Z,22.73
2017-01-25T01:55:24.963Z,22.76
2017-01-25T01:55:53.115Z,22.74
2017-01-25T01:56:21.317Z,22.86
2017-01-25T01:56:49.634Z,22.92
2017-01-25T01:57:18.503Z,22.99
2017-01-25T01:57:46.644Z,22.95
2017-01-25T01:58:14.965Z,22.95
2017-01-25T01:58:43.104Z,22.98
2017-01-25T01:59:11.408Z,22.92
2017-01-25T01:59:39.671Z,22.86
2017-01-25T02:00:07.848Z,22.83
2017-01-25T02:00:36.004Z,22.8
2017-01-25T02:01:04.170Z,22.78
2017-01-25T02:01:32.319Z,22.83
2017-01-25T02:02:00.742Z,22.91
2017-01-25T02:02:28.891Z,22.8
2017-01-25T02:02:57.018Z,22.89
2017-01-25T02:03:25.214Z,22.83
2017-01-25T02:03:53.402Z,22.81
2017-01-25T02:04:21.554Z,22.77
2017-01-25T02:04:49.820Z,22.76
2017-01-25T02:05:18.077Z,22.76
2017-01-25T02:05:46.310Z,22.76
2017-01-25T02:06:14.472Z,22.74
2017-01-25T02:06:42.626Z,22.77
2017-01-25T02:07:10.796Z,22.91
2017-01-25T02:07:39.002Z,22.83
2017-01-25T02:08:07.153Z,22.8
2017-01-25T02:08:35.335Z,22.84
2017-01-25T02:09:03.511Z,22.77
2017-01-25T02:09:31.671Z,22.84
2017-01-25T02:09:59.885Z,22.83
2017-01-25T02:10:28.078Z,22.78
2017-01-25T02:10:56.417Z,22.84
2017-01-25T02:11:24.613Z,22.78
2017-01-25T02:11:52.971Z,22.83
2017-01-25T02:12:21.197Z,22.78
2017-01-25T02:12:49.438Z,22.89
2017-01-25T02:13:17.698Z,22.81
2017-01-25T02:13:45.943Z,22.81
2017-01-25T02:14:14.164Z,22.84
2017-01-25T02:14:42.388Z,22.77
2017-01-25T02:15:10.622Z,22.78
2017-01-25T02:15:38.808Z,22.7
2017-01-25T02:16:07.066Z,22.78
2017-01-25T02:16:35.283Z,22.78
2017-01-25T02:17:03.563Z,22.65
2017-01-25T02:17:31.797Z,22.71
2017-01-25T02:18:00.037Z,22.67
2017-01-25T02:18:28.240Z,22.73
2017-01-25T02:18:56.414Z,22.78
2017-01-25T02:19:24.603Z,22.83
2017-01-25T02:19:52.739Z,22.86
2017-01-25T02:20:20.921Z,22.84
2017-01-25T02:20:49.252Z,22.81
2017-01-25T02:21:17.413Z,22.88
2017-01-25T02:21:45.599Z,22.77
2017-01-25T02:22:13.761Z,22.74
2017-01-25T02:22:41.908Z,22.76
2017-01-25T02:23:10.070Z,22.73
2017-01-25T02:23:38.395Z,22.76
2017-01-25T02:24:06.549Z,22.77
2017-01-25T02:24:34.727Z,22.71
2017-01-25T02:25:02.882Z,22.8
2017-01-25T02:25:31.089Z,22.77
2017-01-25T02:25:59.266Z,22.76
2017-01-25T02:26:27.410Z,22.76
2017-01-25T02:26:55.639Z,22.76
2017-01-25T02:27:23.812Z,22.7
2017-01-25T02:27:51.977Z,22.71
2017-01-25T02:28:20.160Z,22.76
2017-01-25T02:28:48.321Z,22.76
2017-01-25T02:29:16.479Z,22.71
2017-01-25T02:29:44.764Z,22.88
2017-01-25T02:30:12.932Z,22.91
2017-01-25T02:30:41.097Z,22.83
2017-01-25T02:31:09.253Z,22.88
2017-01-25T02:31:37.446Z,22.92
2017-01-25T02:32:05.572Z,22.83
2017-01-25T02:32:33.813Z,22.88
2017-01-25T02:33:01.977Z,22.8
2017-01-25T02:33:30.128Z,22.83
2017-01-25T02:33:58.291Z,22.91
2017-01-25T02:34:26.458Z,22.73
2017-01-25T02:34:54.642Z,22.74
2017-01-25T02:35:22.884Z,22.78
2017-01-25T02:35:51.060Z,22.63
2017-01-25T02:36:19.215Z,22.71
2017-01-25T02:36:47.380Z,22.67
2017-01-25T02:37:15.626Z,22.68
2017-01-25T02:37:43.790Z,22.62
2017-01-25T02:38:12.033Z,22.65
2017-01-25T02:38:40.166Z,22.61
2017-01-25T02:39:08.315Z,22.68
2017-01-25T02:39:36.487Z,22.55
2017-01-25T02:40:04.661Z,22.56
2017-01-25T02:40:32.846Z,22.53
2017-01-25T02:41:00.988Z,22.53
2017-01-25T02:41:29.375Z,22.56
2017-01-25T02:41:57.559Z,22.63
2017-01-25T02:42:25.986Z,22.62
2017-01-25T02:42:54.424Z,22.58
2017-01-25T02:43:22.670Z,22.52
2017-01-25T02:43:50.933Z,22.53
2017-01-25T02:44:19.125Z,22.47
2017-01-25T02:44:47.327Z,22.46
2017-01-25T02:45:15.488Z,22.38
2017-01-25T02:45:43.693Z,22.31
2017-01-25T02:46:11.868Z,22.26
2017-01-25T02:46:40.039Z,22.16
2017-01-25T02:47:08.214Z,22.08
2017-01-25T02:47:36.379Z,22.14
2017-01-25T02:48:04.550Z,22.06
2017-01-25T02:48:32.711Z,21.99
2017-01-25T02:49:00.894Z,21.99
2017-01-25T02:49:29.051Z,21.96
2017-01-25T02:49:57.262Z,21.99
2017-01-25T02:50:25.426Z,22
2017-01-25T02:50:53.669Z,21.91
2017-01-25T02:51:21.831Z,21.88
2017-01-25T02:51:50.002Z,21.91
2017-01-25T02:52:18.143Z,21.91
2017-01-25T02:52:46.362Z,22.07
2017-01-25T02:53:14.694Z,22.25
2017-01-25T02:53:43.365Z,22.18
2017-01-25T02:54:11.643Z,22.33
2017-01-25T02:54:39.782Z,22.36
2017-01-25T02:55:08.021Z,22.34
2017-01-25T02:55:36.195Z,22.28
2017-01-25T02:56:04.348Z,22.33
2017-01-25T02:56:32.514Z,22.25
2017-01-25T02:57:00.659Z,22.16
2017-01-25T02:57:28.822Z,22.19
2017-01-25T02:57:56.980Z,22.12
2017-01-25T02:58:25.182Z,22.12
2017-01-25T02:58:53.372Z,22.03
2017-01-25T02:59:21.737Z,21.99
2017-01-25T02:59:49.909Z,21.94
2017-01-25T03:00:18.070Z,21.91
2017-01-25T03:00:46.210Z,21.83
2017-01-25T03:01:14.464Z,21.75
2017-01-25T03:01:42.639Z,21.72
2017-01-25T03:02:10.804Z,21.62
2017-01-25T03:02:39.246Z,21.66
2017-01-25T03:03:07.531Z,21.66
2017-01-25T03:03:35.678Z,21.58
2017-01-25T03:04:03.841Z,21.6
2017-01-25T03:04:32.029Z,21.45
2017-01-25T03:05:00.188Z,21.56
2017-01-25T03:05:28.348Z,21.5
2017-01-25T03:05:56.565Z,21.5
2017-01-25T03:06:24.749Z,21.63
2017-01-25T03:06:53.006Z,21.66
2017-01-25T03:07:21.166Z,21.72
2017-01-25T03:07:49.481Z,21.96
2017-01-25T03:08:17.722Z,22.01
2017-01-25T03:08:45.909Z,22.07
2017-01-25T03:09:14.158Z,22.07
2017-01-25T03:09:42.316Z,22.04
2017-01-25T03:10:10.466Z,22.07
2017-01-25T03:10:38.681Z,22.12
2017-01-25T03:11:06.831Z,22
2017-01-25T03:11:34.998Z,22.04
2017-01-25T03:12:03.123Z,22.08
2017-01-25T03:12:31.253Z,21.97
2017-01-25T03:12:59.387Z,21.99
2017-01-25T03:13:27.528Z,21.91
2017-01-25T03:13:55.788Z,21.85
2017-01-25T03:14:23.950Z,21.85
2017-01-25T03:14:52.133Z,21.74
2017-01-25T03:15:20.303Z,21.78
2017-01-25T03:15:48.465Z,21.68
2017-01-25T03:16:16.632Z,21.7
2017-01-25T03:16:44.783Z,21.66
2017-01-25T03:17:12.949Z,21.54
2017-01-25T03:17:41.105Z,21.6
2017-01-25T03:18:09.272Z,21.53
2017-01-25T03:18:37.459Z,21.59
2017-01-25T03:19:05.601Z,21.65
2017-01-25T03:19:33.866Z,21.51
2017-01-25T03:20:02.065Z,21.54
2017-01-25T03:20:30.234Z,21.5
2017-01-25T03:20:58.375Z,21.58
2017-01-25T03:21:26.530Z,21.53
2017-01-25T03:21:54.678Z,21.59
2017-01-25T03:22:22.933Z,21.63
2017-01-25T03:22:51.173Z,21.54
2017-01-25T03:23:19.429Z,21.66
2017-01-25T03:23:47.572Z,21.62
2017-01-25T03:24:15.755Z,21.62
2017-01-25T03:24:43.932Z,21.62
2017-01-25T03:25:12.086Z,21.62
2017-01-25T03:25:40.558Z,21.53
2017-01-25T03:26:08.761Z,21.62
2017-01-25T03:26:37.043Z,21.62
2017-01-25T03:27:05.225Z,21.66
2017-01-25T03:27:33.467Z,21.65
2017-01-25T03:28:01.612Z,21.56
2017-01-25T03:28:29.770Z,21.51
2017-01-25T03:28:57.961Z,21.53
2017-01-25T03:29:26.122Z,21.6
2017-01-25T03:29:55.221Z,21.56
2017-01-25T03:30:24.205Z,21.6
2017-01-25T03:30:52.370Z,21.65
2017-01-25T03:31:20.507Z,21.6
2017-01-25T03:31:48.776Z,21.56
2017-01-25T03:32:16.956Z,21.51
2017-01-25T03:32:45.120Z,21.62
2017-01-25T03:33:13.243Z,21.65
2017-01-25T03:33:41.460Z,21.6
2017-01-25T03:34:09.701Z,21.59
2017-01-25T03:34:37.844Z,21.6
2017-01-25T03:35:06.019Z,21.59
2017-01-25T03:35:34.180Z,21.66
2017-01-25T03:36:02.340Z,21.54
2017-01-25T03:36:30.474Z,21.58
2017-01-25T03:36:58.634Z,21.66
2017-01-25T03:37:26.800Z,21.6
2017-01-25T03:37:54.984Z,21.66
2017-01-25T03:38:23.162Z,21.69
2017-01-25T03:38:51.349Z,21.69
2017-01-25T03:39:19.559Z,21.69
2017-01-25T03:39:47.717Z,21.65
2017-01-25T03:40:15.910Z,21.68
2017-01-25T03:40:44.045Z,21.75
2017-01-25T03:41:12.254Z,21.7
2017-01-25T03:41:40.436Z,21.65
2017-01-25T03:42:08.585Z,21.68
2017-01-25T03:42:36.750Z,21.7
2017-01-25T03:43:04.904Z,21.75
2017-01-25T03:43:33.092Z,21.7
2017-01-25T03:44:01.256Z,21.74
2017-01-25T03:44:29.486Z,21.74
2017-01-25T03:44:57.672Z,21.75
2017-01-25T03:45:25.924Z,21.77
2017-01-25T03:45:54.088Z,21.74
2017-01-25T03:46:22.363Z,21.8
2017-01-25T03:46:50.537Z,21.78
2017-01-25T03:47:18.748Z,21.7
2017-01-25T03:47:46.939Z,21.77
2017-01-25T03:48:15.085Z,21.78
2017-01-25T03:48:43.235Z,21.75
2017-01-25T03:49:11.381Z,21.7
2017-01-25T03:49:39.595Z,21.66
2017-01-25T03:50:07.799Z,21.63
2017-01-25T03:50:36.007Z,21.7
2017-01-25T03:51:04.179Z,21.66
2017-01-25T03:51:32.354Z,21.69
2017-01-25T03:52:00.584Z,21.75
2017-01-25T03:52:28.737Z,21.75
2017-01-25T03:52:56.877Z,21.85
2017-01-25T03:53:25.045Z,21.81
2017-01-25T03:53:53.217Z,21.83
2017-01-25T03:54:21.380Z,21.85
2017-01-25T03:54:49.674Z,21.81
2017-01-25T03:55:17.868Z,21.78
2017-01-25T03:55:46.042Z,21.83
2017-01-25T03:56:14.202Z,21.81
2017-01-25T03:56:42.384Z,21.83
2017-01-25T03:57:10.728Z,21.85
2017-01-25T03:57:38.859Z,21.84
2017-01-25T03:58:07.102Z,21.88
2017-01-25T03:58:35.224Z,21.91
2017-01-25T03:59:03.407Z,21.84
2017-01-25T03:59:34.214Z,21.78
2017-01-25T04:00:04.067Z,21.81
2017-01-25T04:00:32.219Z,21.77
2017-01-25T04:01:00.405Z,21.78
2017-01-25T04:01:28.659Z,21.68
2017-01-25T04:01:56.815Z,21.7
2017-01-25T04:02:25.129Z,21.62
2017-01-25T04:02:53.277Z,21.78
2017-01-25T04:03:21.452Z,21.69
2017-01-25T04:03:49.665Z,21.66
2017-01-25T04:04:17.947Z,21.69
2017-01-25T04:04:46.094Z,21.75
2017-01-25T04:05:14.242Z,21.75
2017-01-25T04:05:42.410Z,21.7
2017-01-25T04:06:10.572Z,21.75
2017-01-25T04:06:38.823Z,21.81
2017-01-25T04:07:07.015Z,21.78
2017-01-25T04:07:35.181Z,21.88
2017-01-25T04:08:03.416Z,21.85
2017-01-25T04:08:31.681Z,21.83
2017-01-25T04:08:59.871Z,21.78
2017-01-25T04:09:28.026Z,21.89
2017-01-25T04:09:56.230Z,21.78
2017-01-25T04:10:24.391Z,21.88
2017-01-25T04:10:52.564Z,21.84
2017-01-25T04:11:20.718Z,21.89
2017-01-25T04:11:48.884Z,21.84
2017-01-25T04:12:17.013Z,21.89
2017-01-25T04:12:45.272Z,21.8
2017-01-25T04:13:13.454Z,21.78
2017-01-25T04:13:41.658Z,21.78
2017-01-25T04:14:09.826Z,21.83
2017-01-25T04:14:37.977Z,21.78
2017-01-25T04:15:06.139Z,21.84
2017-01-25T04:15:34.371Z,21.85
2017-01-25T04:16:02.555Z,21.78
2017-01-25T04:16:30.729Z,21.81
2017-01-25T04:16:58.944Z,21.81
2017-01-25T04:17:27.114Z,21.84
2017-01-25T04:17:55.295Z,21.85
2017-01-25T04:18:23.511Z,21.78
2017-01-25T04:18:51.794Z,21.78
2017-01-25T04:19:20.122Z,21.78
2017-01-25T04:19:48.443Z,21.83
2017-01-25T04:20:16.888Z,21.84
2017-01-25T04:20:45.407Z,21.77
2017-01-25T04:21:13.850Z,21.85
2017-01-25T04:21:42.303Z,21.85
2017-01-25T04:22:10.581Z,21.84
2017-01-25T04:22:38.761Z,21.8
2017-01-25T04:23:07.227Z,21.83
2017-01-25T04:23:35.435Z,21.85
2017-01-25T04:24:03.627Z,21.89
2017-01-25T04:24:31.799Z,21.94
2017-01-25T04:24:59.975Z,21.96
2017-01-25T04:25:28.254Z,21.91
2017-01-25T04:25:56.476Z,21.99
2017-01-25T04:26:24.656Z,21.94
2017-01-25T04:26:53.277Z,21.99
2017-01-25T04:27:22.546Z,21.92
2017-01-25T04:27:50.739Z,21.85
2017-01-25T04:28:19.056Z,21.91
2017-01-25T04:28:47.208Z,21.91
2017-01-25T04:29:15.394Z,21.94
2017-01-25T04:29:43.794Z,21.91
2017-01-25T04:30:12.136Z,21.94
2017-01-25T04:30:40.319Z,21.91
2017-01-25T04:31:08.475Z,21.91
2017-01-25T04:31:36.722Z,21.91
2017-01-25T04:32:04.919Z,21.92
2017-01-25T04:32:33.110Z,22
2017-01-25T04:33:01.293Z,21.92
2017-01-25T04:33:29.516Z,21.97
2017-01-25T04:33:57.668Z,21.94
2017-01-25T04:34:25.813Z,21.92
2017-01-25T04:34:53.951Z,21.88
2017-01-25T04:35:22.109Z,21.94
2017-01-25T04:35:50.361Z,21.91
2017-01-25T04:36:18.549Z,21.91
2017-01-25T04:36:46.705Z,21.91
2017-01-25T04:37:14.860Z,21.92
2017-01-25T04:37:43.003Z,21.89
2017-01-25T04:38:11.401Z,21.94
2017-01-25T04:38:39.766Z,21.89
2017-01-25T04:39:07.913Z,21.89
2017-01-25T04:39:36.053Z,22.01
2017-01-25T04:40:04.209Z,21.97
2017-01-25T04:40:32.378Z,21.99
2017-01-25T04:41:00.712Z,21.94
2017-01-25T04:41:28.875Z,22.01
2017-01-25T04:41:57.489Z,22.06
2017-01-25T04:42:25.656Z,22.06
2017-01-25T04:42:53.815Z,22.08
2017-01-25T04:43:21.985Z,22.06
2017-01-25T04:43:50.188Z,22.15
2017-01-25T04:44:18.579Z,22.15
2017-01-25T04:44:46.736Z,22.07
2017-01-25T04:45:14.901Z,22.15
2017-01-25T04:45:43.033Z,22.12
2017-01-25T04:46:11.238Z,22.18
2017-01-25T04:46:39.417Z,22.19
2017-01-25T04:47:07.630Z,22.19
2017-01-25T04:47:35.959Z,22.22
2017-01-25T04:48:04.148Z,22.21
2017-01-25T04:48:32.351Z,22.22
2017-01-25T04:49:00.647Z,22.28
2017-01-25T04:49:28.831Z,22.33
2017-01-25T04:49:57.001Z,22.31
2017-01-25T04:50:25.185Z,22.31
2017-01-25T04:50:53.351Z,22.26
2017-01-25T04:51:21.548Z,22.34
2017-01-25T04:51:49.742Z,22.3
2017-01-25T04:52:17.998Z,22.4
2017-01-25T04:52:46.242Z,22.33
2017-01-25T04:53:14.447Z,22.37
2017-01-25T04:53:42.625Z,22.4
2017-01-25T04:54:10.787Z,22.41
2017-01-25T04:54:39.069Z,22.37
2017-01-25T04:55:07.255Z,22.46
2017-01-25T04:55:35.404Z,22.44
2017-01-25T04:56:03.551Z,22.37
2017-01-25T04:56:31.697Z,22.41
2017-01-25T04:56:59.883Z,22.46
2017-01-25T04:57:28.050Z,22.46
2017-01-25T04:57:56.277Z,22.51
2017-01-25T04:58:24.486Z,22.55
2017-01-25T04:58:52.649Z,22.55
2017-01-25T04:59:21.454Z,22.55
2017-01-25T04:59:49.624Z,22.55
2017-01-25T05:00:17.795Z,22.56
2017-01-25T05:00:46.046Z,22.59
2017-01-25T05:01:14.333Z,22.59
2017-01-25T05:01:42.523Z,22.56
2017-01-25T05:02:10.799Z,22.51
2017-01-25T05:02:38.996Z,22.58
2017-01-25T05:03:07.149Z,22.61
2017-01-25T05:03:35.421Z,22.56
2017-01-25T05:04:03.589Z,22.58
2017-01-25T05:04:31.800Z,22.62
2017-01-25T05:04:59.973Z,22.65
2017-01-25T05:05:28.148Z,22.61
2017-01-25T05:05:56.319Z,22.63
2017-01-25T05:06:24.623Z,22.58
2017-01-25T05:06:52.763Z,22.51
2017-01-25T05:07:21.094Z,22.58
2017-01-25T05:07:49.269Z,22.56
2017-01-25T05:08:17.520Z,22.56
2017-01-25T05:08:45.700Z,22.55
2017-01-25T05:09:13.850Z,22.62
2017-01-25T05:09:42.011Z,22.59
2017-01-25T05:10:10.170Z,22.51
2017-01-25T05:10:38.320Z,22.53
2017-01-25T05:11:06.509Z,22.53
2017-01-25T05:11:34.705Z,22.51
2017-01-25T05:12:02.884Z,22.55
2017-01-25T05:12:31.473Z,22.56
2017-01-25T05:12:59.637Z,22.63
2017-01-25T05:13:27.861Z,22.65
2017-01-25T05:13:56.112Z,22.65
2017-01-25T05:14:24.257Z,22.65
2017-01-25T05:14:52.403Z,22.56
2017-01-25T05:15:20.568Z,22.71
2017-01-25T05:15:48.708Z,22.67
2017-01-25T05:16:16.866Z,22.61
2017-01-25T05:16:45.003Z,22.68
2017-01-25T05:17:13.210Z,22.67
2017-01-25T05:17:41.355Z,22.7
2017-01-25T05:18:09.640Z,22.67
2017-01-25T05:18:37.811Z,22.65
2017-01-25T05:19:06.081Z,22.62
2017-01-25T05:19:34.237Z,22.61
2017-01-25T05:20:02.391Z,22.67
2017-01-25T05:20:30.520Z,22.52
2017-01-25T05:20:58.804Z,22.7
2017-01-25T05:21:26.977Z,22.52
2017-01-25T05:21:55.146Z,22.55
2017-01-25T05:22:23.348Z,22.53
2017-01-25T05:22:51.489Z,22.62
2017-01-25T05:23:19.688Z,22.52
2017-01-25T05:23:47.880Z,22.53
2017-01-25T05:24:16.143Z,22.55
2017-01-25T05:24:44.297Z,22.53
2017-01-25T05:25:12.484Z,22.56
2017-01-25T05:25:40.641Z,22.53
2017-01-25T05:26:08.794Z,22.55
2017-01-25T05:26:36.964Z,22.59
2017-01-25T05:27:05.165Z,22.55
2017-01-25T05:27:33.307Z,22.55
2017-01-25T05:28:01.478Z,22.52
2017-01-25T05:28:29.622Z,22.56
2017-01-25T05:28:57.790Z,22.51
2017-01-25T05:29:25.977Z,22.44
2017-01-25T05:29:54.109Z,22.46
2017-01-25T05:30:22.368Z,22.44
2017-01-25T05:30:50.538Z,22.41
2017-01-25T05:31:18.702Z,22.36
2017-01-25T05:31:46.868Z,22.28
2017-01-25T05:32:15.028Z,22.36
2017-01-25T05:32:43.196Z,22.33
2017-01-25T05:33:11.394Z,22.36
2017-01-25T05:33:39.548Z,22.3
2017-01-25T05:34:07.710Z,22.26
2017-01-25T05:34:35.871Z,22.33
2017-01-25T05:35:04.076Z,22.28
2017-01-25T05:35:32.293Z,22.33
2017-01-25T05:36:00.573Z,22.21
2017-01-25T05:36:28.726Z,22.28
2017-01-25T05:36:56.880Z,22.23
2017-01-25T05:37:25.035Z,22.25
2017-01-25T05:37:53.174Z,22.31
2017-01-25T05:38:21.361Z,22.31
2017-01-25T05:38:49.509Z,22.31
2017-01-25T05:39:17.673Z,22.26
2017-01-25T05:39:45.828Z,22.26
2017-01-25T05:40:14.088Z,22.3
2017-01-25T05:40:42.301Z,22.33
2017-01-25T05:41:10.589Z,22.33
2017-01-25T05:41:38.767Z,22.31
2017-01-25T05:42:07.044Z,22.37
2017-01-25T05:42:35.192Z,22.28
2017-01-25T05:43:03.336Z,22.26
2017-01-25T05:43:31.608Z,22.37
2017-01-25T05:43:59.764Z,22.34
2017-01-25T05:44:27.965Z,22.3
2017-01-25T05:44:56.135Z,22.31
2017-01-25T05:45:24.313Z,22.31
2017-01-25T05:45:52.483Z,22.33
2017-01-25T05:46:20.785Z,22.28
2017-01-25T05:46:48.959Z,22.3
2017-01-25T05:47:17.149Z,22.34
2017-01-25T05:47:45.412Z,22.3
2017-01-25T05:48:13.669Z,22.3
2017-01-25T05:48:41.861Z,22.31
2017-01-25T05:49:10.027Z,22.34
2017-01-25T05:49:38.176Z,22.31
2017-01-25T05:50:06.347Z,22.33
2017-01-25T05:50:34.515Z,22.33
2017-01-25T05:51:02.699Z,22.31
2017-01-25T05:51:30.971Z,22.31
2017-01-25T05:51:59.145Z,22.36
2017-01-25T05:52:27.303Z,22.31
2017-01-25T05:52:55.488Z,22.33
2017-01-25T05:53:23.621Z,22.33
2017-01-25T05:53:51.789Z,22.37
2017-01-25T05:54:19.962Z,22.37
2017-01-25T05:54:48.109Z,22.44
2017-01-25T05:55:16.305Z,22.34
2017-01-25T05:55:44.567Z,22.38
2017-01-25T05:56:12.787Z,22.46
2017-01-25T05:56:41.150Z,22.38
2017-01-25T05:57:09.357Z,22.34
2017-01-25T05:57:37.503Z,22.44
2017-01-25T05:58:05.747Z,22.41
2017-01-25T05:58:33.914Z,22.46
2017-01-25T05:59:02.183Z,22.46
2017-01-25T05:59:30.342Z,22.51
2017-01-25T05:59:58.523Z,22.49
2017-01-25T06:00:26.716Z,22.46
2017-01-25T06:00:54.913Z,22.51
2017-01-25T06:01:23.062Z,22.49
2017-01-25T06:01:51.250Z,22.47
2017-01-25T06:02:19.532Z,22.52
2017-01-25T06:02:47.684Z,22.51
2017-01-25T06:03:16.014Z,22.46
2017-01-25T06:03:44.246Z,22.49
2017-01-25T06:04:12.566Z,22.47
2017-01-25T06:04:40.937Z,22.41